sensor_id;sensor_type;location;lat;lon;timestamp;P1;durP1;ratioP1;P2;durP2;ratioP2
43363;SDS011;40636;52.424;-1.948;2022-12-24T00:01:33;11.55;;;2.42;;
43363;SDS011;40636;52.424;-1.948;2022-12-24T00:04:00;9.25;;;2.10;;
43363;SDS011;40636;52.424;-1.948;2022-12-24T00:06:26;7.45;;;1.80;;
43363;SDS011;40636;52.424;-1.948;2022-12-24T00:08:53;12.88;;;1.83;;
43363;SDS011;40636;52.424;-1.948;2022-12-24T00:11:20;7.30;;;2.40;;
43363;SDS011;40636;52.424;-1.948;2022-12-24T00:13:47;18.58;;;4.00;;
43363;SDS011;40636;52.424;-1.948;2022-12-24T00:16:14;6.82;;;2.05;;
43363;SDS011;40636;52.424;-1.948;2022-12-24T00:18:41;12.73;;;2.67;;
43363;SDS011;40636;52.424;-1.948;2022-12-24T00:21:12;6.78;;;2.42;;
43363;SDS011;40636;52.424;-1.948;2022-12-24T00:23:40;10.23;;;2.40;;
43363;SDS011;40636;52.424;-1.948;2022-12-24T00:26:06;9.77;;;2.53;;
43363;SDS011;40636;52.424;-1.948;2022-12-24T00:28:33;14.98;;;2.95;;
43363;SDS011;40636;52.424;-1.948;2022-12-24T00:31:06;7.28;;;1.48;;
43363;SDS011;40636;52.424;-1.948;2022-12-24T00:33:33;3.28;;;1.27;;
43363;SDS011;40636;52.424;-1.948;2022-12-24T00:36:00;4.03;;;1.00;;
43363;SDS011;40636;52.424;-1.948;2022-12-24T00:38:27;5.05;;;1.50;;
43363;SDS011;40636;52.424;-1.948;2022-12-24T00:40:57;7.00;;;2.47;;
43363;SDS011;40636;52.424;-1.948;2022-12-24T00:43:28;4.10;;;1.50;;
43363;SDS011;40636;52.424;-1.948;2022-12-24T00:45:55;11.38;;;2.03;;
43363;SDS011;40636;52.424;-1.948;2022-12-24T00:48:22;2.67;;;1.67;;
43363;SDS011;40636;52.424;-1.948;2022-12-24T00:50:49;5.90;;;1.88;;
43363;SDS011;40636;52.424;-1.948;2022-12-24T00:53:17;2.53;;;1.50;;
43363;SDS011;40636;52.424;-1.948;2022-12-24T00:55:44;8.45;;;1.77;;
43363;SDS011;40636;52.424;-1.948;2022-12-24T00:58:10;7.45;;;2.97;;
43363;SDS011;40636;52.424;-1.948;2022-12-24T01:00:37;6.78;;;1.27;;
43363;SDS011;40636;52.424;-1.948;2022-12-24T01:03:06;5.47;;;1.40;;
43363;SDS011;40636;52.424;-1.948;2022-12-24T01:05:33;5.53;;;1.52;;
43363;SDS011;40636;52.424;-1.948;2022-12-24T01:07:59;6.30;;;1.70;;
43363;SDS011;40636;52.424;-1.948;2022-12-24T01:10:26;4.72;;;1.73;;
43363;SDS011;40636;52.424;-1.948;2022-12-24T01:12:52;6.53;;;1.35;;
43363;SDS011;40636;52.424;-1.948;2022-12-24T01:15:19;8.40;;;1.67;;
43363;SDS011;40636;52.424;-1.948;2022-12-24T01:17:46;5.20;;;1.60;;
43363;SDS011;40636;52.424;-1.948;2022-12-24T01:20:14;9.93;;;1.92;;
43363;SDS011;40636;52.424;-1.948;2022-12-24T01:22:41;4.38;;;1.60;;
43363;SDS011;40636;52.424;-1.948;2022-12-24T01:25:08;5.50;;;1.83;;
43363;SDS011;40636;52.424;-1.948;2022-12-24T01:27:35;7.93;;;1.65;;
43363;SDS011;40636;52.424;-1.948;2022-12-24T01:30:03;5.25;;;0.90;;
43363;SDS011;40636;52.424;-1.948;2022-12-24T01:32:31;4.57;;;1.30;;
43363;SDS011;40636;52.424;-1.948;2022-12-24T01:34:58;9.23;;;1.40;;
43363;SDS011;40636;52.424;-1.948;2022-12-24T01:37:25;5.40;;;1.55;;
43363;SDS011;40636;52.424;-1.948;2022-12-24T01:39:52;1.50;;;0.80;;
43363;SDS011;40636;52.424;-1.948;2022-12-24T01:42:40;2.28;;;1.50;;
43363;SDS011;40636;52.424;-1.948;2022-12-24T01:45:45;3.10;;;1.00;;
43363;SDS011;40636;52.424;-1.948;2022-12-24T01:48:30;2.80;;;0.63;;
43363;SDS011;40636;52.424;-1.948;2022-12-24T01:51:15;1.33;;;0.70;;
43363;SDS011;40636;52.424;-1.948;2022-12-24T01:53:56;1.88;;;0.75;;
43363;SDS011;40636;52.424;-1.948;2022-12-24T01:56:27;6.72;;;0.80;;
43363;SDS011;40636;52.424;-1.948;2022-12-24T01:58:56;4.38;;;1.52;;
43363;SDS011;40636;52.424;-1.948;2022-12-24T02:01:27;3.35;;;0.90;;
43363;SDS011;40636;52.424;-1.948;2022-12-24T02:03:54;2.38;;;0.70;;
43363;SDS011;40636;52.424;-1.948;2022-12-24T02:06:21;1.00;;;0.77;;
43363;SDS011;40636;52.424;-1.948;2022-12-24T02:08:49;5.88;;;1.70;;
43363;SDS011;40636;52.424;-1.948;2022-12-24T02:11:19;2.83;;;0.80;;
43363;SDS011;40636;52.424;-1.948;2022-12-24T02:13:49;3.05;;;1.23;;
43363;SDS011;40636;52.424;-1.948;2022-12-24T02:30:23;0.30;;;0.30;;
43363;SDS011;40636;52.424;-1.948;2022-12-24T02:32:59;1.00;;;0.68;;
43363;SDS011;40636;52.424;-1.948;2022-12-24T02:36:04;1.55;;;0.68;;
43363;SDS011;40636;52.424;-1.948;2022-12-24T02:38:33;3.40;;;0.60;;
43363;SDS011;40636;52.424;-1.948;2022-12-24T02:41:15;5.40;;;1.00;;
43363;SDS011;40636;52.424;-1.948;2022-12-24T02:43:47;4.10;;;1.17;;
43363;SDS011;40636;52.424;-1.948;2022-12-24T02:46:17;3.80;;;0.77;;
43363;SDS011;40636;52.424;-1.948;2022-12-24T02:48:48;4.10;;;0.88;;
43363;SDS011;40636;52.424;-1.948;2022-12-24T02:51:16;2.58;;;1.15;;
43363;SDS011;40636;52.424;-1.948;2022-12-24T02:53:48;1.92;;;0.52;;
43363;SDS011;40636;52.424;-1.948;2022-12-24T03:05:50;5.97;;;1.10;;
43363;SDS011;40636;52.424;-1.948;2022-12-24T03:08:10;6.32;;;0.82;;
43363;SDS011;40636;52.424;-1.948;2022-12-24T03:13:18;3.03;;;1.00;;
43363;SDS011;40636;52.424;-1.948;2022-12-24T03:15:47;3.97;;;0.95;;
43363;SDS011;40636;52.424;-1.948;2022-12-24T03:18:16;5.03;;;1.23;;
43363;SDS011;40636;52.424;-1.948;2022-12-24T03:20:53;3.90;;;1.10;;
43363;SDS011;40636;52.424;-1.948;2022-12-24T03:25:52;2.97;;;1.05;;
43363;SDS011;40636;52.424;-1.948;2022-12-24T03:28:19;1.70;;;0.80;;
43363;SDS011;40636;52.424;-1.948;2022-12-24T03:30:51;5.22;;;0.85;;
43363;SDS011;40636;52.424;-1.948;2022-12-24T03:33:18;3.40;;;1.33;;
43363;SDS011;40636;52.424;-1.948;2022-12-24T03:35:45;2.13;;;1.25;;
43363;SDS011;40636;52.424;-1.948;2022-12-24T03:38:12;4.15;;;1.05;;
43363;SDS011;40636;52.424;-1.948;2022-12-24T03:40:39;8.05;;;1.67;;
43363;SDS011;40636;52.424;-1.948;2022-12-24T03:43:06;5.20;;;1.38;;
43363;SDS011;40636;52.424;-1.948;2022-12-24T03:45:34;3.95;;;1.52;;
43363;SDS011;40636;52.424;-1.948;2022-12-24T03:48:01;3.50;;;0.90;;
43363;SDS011;40636;52.424;-1.948;2022-12-24T03:50:27;3.05;;;1.00;;
43363;SDS011;40636;52.424;-1.948;2022-12-24T03:52:54;4.18;;;0.85;;
43363;SDS011;40636;52.424;-1.948;2022-12-24T03:55:21;1.95;;;1.60;;
43363;SDS011;40636;52.424;-1.948;2022-12-24T03:57:47;2.65;;;0.90;;
43363;SDS011;40636;52.424;-1.948;2022-12-24T04:00:14;3.75;;;0.82;;
43363;SDS011;40636;52.424;-1.948;2022-12-24T04:02:41;10.13;;;1.08;;
43363;SDS011;40636;52.424;-1.948;2022-12-24T04:05:12;7.60;;;1.38;;
43363;SDS011;40636;52.424;-1.948;2022-12-24T04:07:40;7.00;;;0.98;;
43363;SDS011;40636;52.424;-1.948;2022-12-24T04:10:07;4.32;;;1.20;;
43363;SDS011;40636;52.424;-1.948;2022-12-24T04:12:35;5.85;;;1.60;;
43363;SDS011;40636;52.424;-1.948;2022-12-24T04:15:03;3.28;;;1.40;;
43363;SDS011;40636;52.424;-1.948;2022-12-24T04:17:30;2.95;;;1.10;;
43363;SDS011;40636;52.424;-1.948;2022-12-24T04:19:57;2.75;;;0.98;;
43363;SDS011;40636;52.424;-1.948;2022-12-24T04:22:24;7.65;;;1.48;;
43363;SDS011;40636;52.424;-1.948;2022-12-24T04:24:50;1.38;;;0.80;;
43363;SDS011;40636;52.424;-1.948;2022-12-24T04:27:17;12.98;;;1.75;;
43363;SDS011;40636;52.424;-1.948;2022-12-24T04:29:44;4.13;;;0.77;;
43363;SDS011;40636;52.424;-1.948;2022-12-24T04:32:10;4.78;;;0.88;;
43363;SDS011;40636;52.424;-1.948;2022-12-24T04:34:37;6.20;;;1.80;;
43363;SDS011;40636;52.424;-1.948;2022-12-24T04:37:04;8.68;;;1.58;;
43363;SDS011;40636;52.424;-1.948;2022-12-24T04:39:31;2.95;;;1.38;;
43363;SDS011;40636;52.424;-1.948;2022-12-24T04:41:57;10.95;;;1.85;;
43363;SDS011;40636;52.424;-1.948;2022-12-24T04:44:24;3.30;;;1.20;;
43363;SDS011;40636;52.424;-1.948;2022-12-24T04:46:51;9.73;;;1.35;;
43363;SDS011;40636;52.424;-1.948;2022-12-24T04:49:17;3.58;;;1.00;;
43363;SDS011;40636;52.424;-1.948;2022-12-24T04:51:44;5.65;;;1.27;;
43363;SDS011;40636;52.424;-1.948;2022-12-24T04:54:10;3.10;;;1.15;;
43363;SDS011;40636;52.424;-1.948;2022-12-24T04:56:37;4.03;;;1.33;;
43363;SDS011;40636;52.424;-1.948;2022-12-24T04:59:04;9.82;;;1.35;;
43363;SDS011;40636;52.424;-1.948;2022-12-24T05:01:31;3.50;;;0.95;;
43363;SDS011;40636;52.424;-1.948;2022-12-24T05:03:58;3.03;;;2.08;;
43363;SDS011;40636;52.424;-1.948;2022-12-24T05:06:27;3.40;;;1.30;;
43363;SDS011;40636;52.424;-1.948;2022-12-24T05:08:56;7.18;;;1.67;;
43363;SDS011;40636;52.424;-1.948;2022-12-24T05:11:23;7.57;;;1.48;;
43363;SDS011;40636;52.424;-1.948;2022-12-24T05:13:50;4.22;;;1.95;;
43363;SDS011;40636;52.424;-1.948;2022-12-24T05:16:18;2.92;;;1.05;;
43363;SDS011;40636;52.424;-1.948;2022-12-24T05:18:46;4.38;;;1.35;;
43363;SDS011;40636;52.424;-1.948;2022-12-24T05:21:14;3.30;;;1.55;;
43363;SDS011;40636;52.424;-1.948;2022-12-24T05:23:43;6.93;;;2.10;;
43363;SDS011;40636;52.424;-1.948;2022-12-24T05:26:40;2.05;;;1.40;;
43363;SDS011;40636;52.424;-1.948;2022-12-24T05:29:14;4.40;;;1.30;;
43363;SDS011;40636;52.424;-1.948;2022-12-24T05:31:41;6.53;;;1.48;;
43363;SDS011;40636;52.424;-1.948;2022-12-24T05:34:10;5.65;;;1.92;;
43363;SDS011;40636;52.424;-1.948;2022-12-24T05:36:38;4.07;;;1.30;;
43363;SDS011;40636;52.424;-1.948;2022-12-24T05:39:05;11.57;;;2.17;;
43363;SDS011;40636;52.424;-1.948;2022-12-24T05:41:40;8.40;;;1.95;;
43363;SDS011;40636;52.424;-1.948;2022-12-24T05:44:07;5.28;;;2.45;;
43363;SDS011;40636;52.424;-1.948;2022-12-24T05:46:34;7.88;;;2.15;;
43363;SDS011;40636;52.424;-1.948;2022-12-24T05:49:01;8.40;;;1.83;;
43363;SDS011;40636;52.424;-1.948;2022-12-24T05:51:27;17.58;;;2.90;;
43363;SDS011;40636;52.424;-1.948;2022-12-24T05:53:54;5.72;;;1.10;;
43363;SDS011;40636;52.424;-1.948;2022-12-24T05:56:21;11.75;;;1.80;;
43363;SDS011;40636;52.424;-1.948;2022-12-24T05:58:50;5.18;;;1.58;;
43363;SDS011;40636;52.424;-1.948;2022-12-24T06:01:19;10.80;;;1.73;;
43363;SDS011;40636;52.424;-1.948;2022-12-24T06:03:47;8.15;;;1.40;;
43363;SDS011;40636;52.424;-1.948;2022-12-24T06:06:16;7.13;;;2.88;;
43363;SDS011;40636;52.424;-1.948;2022-12-24T06:08:46;9.63;;;2.60;;
43363;SDS011;40636;52.424;-1.948;2022-12-24T06:11:15;10.75;;;1.55;;
43363;SDS011;40636;52.424;-1.948;2022-12-24T06:13:43;7.07;;;1.77;;
43363;SDS011;40636;52.424;-1.948;2022-12-24T06:16:10;16.00;;;2.42;;
43363;SDS011;40636;52.424;-1.948;2022-12-24T06:18:39;2.53;;;0.90;;
43363;SDS011;40636;52.424;-1.948;2022-12-24T06:21:07;4.63;;;1.45;;
43363;SDS011;40636;52.424;-1.948;2022-12-24T06:23:35;7.43;;;1.38;;
43363;SDS011;40636;52.424;-1.948;2022-12-24T06:26:03;6.72;;;1.65;;
43363;SDS011;40636;52.424;-1.948;2022-12-24T06:28:32;4.72;;;1.23;;
43363;SDS011;40636;52.424;-1.948;2022-12-24T06:31:00;5.68;;;1.50;;
43363;SDS011;40636;52.424;-1.948;2022-12-24T06:33:29;5.03;;;1.65;;
43363;SDS011;40636;52.424;-1.948;2022-12-24T06:35:57;8.18;;;1.75;;
43363;SDS011;40636;52.424;-1.948;2022-12-24T06:38:24;6.95;;;1.23;;
43363;SDS011;40636;52.424;-1.948;2022-12-24T06:40:51;3.75;;;1.58;;
43363;SDS011;40636;52.424;-1.948;2022-12-24T06:43:18;5.88;;;1.45;;
43363;SDS011;40636;52.424;-1.948;2022-12-24T06:45:45;4.88;;;2.30;;
43363;SDS011;40636;52.424;-1.948;2022-12-24T06:48:13;5.35;;;1.55;;
43363;SDS011;40636;52.424;-1.948;2022-12-24T06:50:40;8.32;;;2.10;;
43363;SDS011;40636;52.424;-1.948;2022-12-24T06:53:07;5.00;;;2.05;;
43363;SDS011;40636;52.424;-1.948;2022-12-24T06:55:34;2.17;;;1.17;;
43363;SDS011;40636;52.424;-1.948;2022-12-24T06:58:01;8.57;;;2.17;;
43363;SDS011;40636;52.424;-1.948;2022-12-24T07:00:28;5.63;;;1.55;;
43363;SDS011;40636;52.424;-1.948;2022-12-24T07:02:55;3.90;;;1.17;;
43363;SDS011;40636;52.424;-1.948;2022-12-24T07:05:22;5.10;;;1.48;;
43363;SDS011;40636;52.424;-1.948;2022-12-24T07:07:49;6.32;;;1.27;;
43363;SDS011;40636;52.424;-1.948;2022-12-24T07:10:16;5.97;;;1.63;;
43363;SDS011;40636;52.424;-1.948;2022-12-24T07:12:43;7.07;;;1.17;;
43363;SDS011;40636;52.424;-1.948;2022-12-24T07:15:11;4.78;;;1.73;;
43363;SDS011;40636;52.424;-1.948;2022-12-24T07:17:38;3.90;;;1.50;;
43363;SDS011;40636;52.424;-1.948;2022-12-24T07:20:06;9.73;;;1.35;;
43363;SDS011;40636;52.424;-1.948;2022-12-24T07:22:34;5.00;;;1.20;;
43363;SDS011;40636;52.424;-1.948;2022-12-24T07:25:00;7.25;;;1.67;;
43363;SDS011;40636;52.424;-1.948;2022-12-24T07:27:27;6.13;;;1.67;;
43363;SDS011;40636;52.424;-1.948;2022-12-24T07:29:54;3.03;;;1.35;;
43363;SDS011;40636;52.424;-1.948;2022-12-24T07:32:20;3.88;;;1.00;;
43363;SDS011;40636;52.424;-1.948;2022-12-24T07:34:47;4.00;;;1.30;;
43363;SDS011;40636;52.424;-1.948;2022-12-24T07:37:14;8.80;;;1.30;;
43363;SDS011;40636;52.424;-1.948;2022-12-24T07:39:41;3.25;;;1.50;;
43363;SDS011;40636;52.424;-1.948;2022-12-24T07:42:08;5.22;;;1.45;;
43363;SDS011;40636;52.424;-1.948;2022-12-24T07:44:34;6.20;;;1.00;;
43363;SDS011;40636;52.424;-1.948;2022-12-24T07:47:01;3.20;;;1.10;;
43363;SDS011;40636;52.424;-1.948;2022-12-24T07:49:28;4.00;;;1.13;;
43363;SDS011;40636;52.424;-1.948;2022-12-24T07:51:55;5.25;;;1.90;;
43363;SDS011;40636;52.424;-1.948;2022-12-24T07:54:21;8.25;;;1.70;;
43363;SDS011;40636;52.424;-1.948;2022-12-24T07:56:48;2.20;;;1.80;;
43363;SDS011;40636;52.424;-1.948;2022-12-24T07:59:15;5.35;;;1.27;;
43363;SDS011;40636;52.424;-1.948;2022-12-24T08:01:41;7.95;;;2.20;;
43363;SDS011;40636;52.424;-1.948;2022-12-24T08:04:08;3.72;;;1.40;;
43363;SDS011;40636;52.424;-1.948;2022-12-24T08:06:35;5.00;;;1.77;;
43363;SDS011;40636;52.424;-1.948;2022-12-24T08:09:02;12.82;;;1.90;;
43363;SDS011;40636;52.424;-1.948;2022-12-24T08:11:29;7.18;;;1.60;;
43363;SDS011;40636;52.424;-1.948;2022-12-24T08:13:55;6.20;;;1.52;;
43363;SDS011;40636;52.424;-1.948;2022-12-24T08:16:22;6.28;;;1.50;;
43363;SDS011;40636;52.424;-1.948;2022-12-24T08:18:49;6.43;;;1.90;;
43363;SDS011;40636;52.424;-1.948;2022-12-24T08:21:16;6.40;;;1.30;;
43363;SDS011;40636;52.424;-1.948;2022-12-24T08:23:42;2.50;;;1.58;;
43363;SDS011;40636;52.424;-1.948;2022-12-24T08:26:09;8.55;;;1.25;;
43363;SDS011;40636;52.424;-1.948;2022-12-24T08:28:36;3.80;;;1.40;;
43363;SDS011;40636;52.424;-1.948;2022-12-24T08:31:02;6.05;;;2.10;;
43363;SDS011;40636;52.424;-1.948;2022-12-24T08:33:29;13.30;;;2.10;;
43363;SDS011;40636;52.424;-1.948;2022-12-24T08:35:57;4.28;;;1.65;;
43363;SDS011;40636;52.424;-1.948;2022-12-24T08:38:27;5.20;;;2.17;;
43363;SDS011;40636;52.424;-1.948;2022-12-24T08:40:54;3.03;;;1.27;;
43363;SDS011;40636;52.424;-1.948;2022-12-24T08:43:21;9.48;;;2.03;;
43363;SDS011;40636;52.424;-1.948;2022-12-24T08:45:50;4.65;;;2.00;;
43363;SDS011;40636;52.424;-1.948;2022-12-24T08:48:18;5.57;;;2.03;;
43363;SDS011;40636;52.424;-1.948;2022-12-24T08:50:44;7.65;;;3.17;;
43363;SDS011;40636;52.424;-1.948;2022-12-24T08:53:11;10.20;;;3.20;;
43363;SDS011;40636;52.424;-1.948;2022-12-24T08:55:38;7.35;;;3.15;;
43363;SDS011;40636;52.424;-1.948;2022-12-24T08:58:05;9.05;;;3.58;;
43363;SDS011;40636;52.424;-1.948;2022-12-24T09:00:32;11.30;;;4.45;;
43363;SDS011;40636;52.424;-1.948;2022-12-24T09:02:58;19.48;;;4.22;;
43363;SDS011;40636;52.424;-1.948;2022-12-24T09:05:25;8.52;;;4.18;;
43363;SDS011;40636;52.424;-1.948;2022-12-24T09:07:52;14.20;;;4.60;;
43363;SDS011;40636;52.424;-1.948;2022-12-24T09:10:19;10.98;;;5.30;;
43363;SDS011;40636;52.424;-1.948;2022-12-24T09:12:46;13.93;;;4.45;;
43363;SDS011;40636;52.424;-1.948;2022-12-24T09:15:13;12.45;;;4.95;;
43363;SDS011;40636;52.424;-1.948;2022-12-24T09:17:40;13.55;;;4.45;;
43363;SDS011;40636;52.424;-1.948;2022-12-24T09:20:07;12.75;;;3.97;;
43363;SDS011;40636;52.424;-1.948;2022-12-24T09:22:34;16.15;;;4.53;;
43363;SDS011;40636;52.424;-1.948;2022-12-24T09:25:03;17.35;;;3.80;;
43363;SDS011;40636;52.424;-1.948;2022-12-24T09:27:35;11.48;;;3.88;;
43363;SDS011;40636;52.424;-1.948;2022-12-24T09:30:03;15.43;;;4.47;;
43363;SDS011;40636;52.424;-1.948;2022-12-24T09:32:31;8.25;;;3.75;;
43363;SDS011;40636;52.424;-1.948;2022-12-24T09:34:58;6.95;;;3.55;;
43363;SDS011;40636;52.424;-1.948;2022-12-24T09:37:25;14.07;;;3.75;;
43363;SDS011;40636;52.424;-1.948;2022-12-24T09:39:51;11.00;;;3.85;;
43363;SDS011;40636;52.424;-1.948;2022-12-24T09:47:34;14.20;;;7.07;;
43363;SDS011;40636;52.424;-1.948;2022-12-24T09:50:28;18.88;;;4.72;;
43363;SDS011;40636;52.424;-1.948;2022-12-24T09:56:03;7.60;;;3.33;;
43363;SDS011;40636;52.424;-1.948;2022-12-24T09:58:37;11.85;;;3.33;;
43363;SDS011;40636;52.424;-1.948;2022-12-24T10:01:10;18.05;;;4.53;;
43363;SDS011;40636;52.424;-1.948;2022-12-24T10:03:38;11.75;;;3.38;;
43363;SDS011;40636;52.424;-1.948;2022-12-24T10:06:07;17.27;;;2.72;;
43363;SDS011;40636;52.424;-1.948;2022-12-24T10:11:29;10.75;;;3.30;;
43363;SDS011;40636;52.424;-1.948;2022-12-24T10:14:07;18.63;;;4.63;;
43363;SDS011;40636;52.424;-1.948;2022-12-24T10:16:50;12.25;;;3.20;;
43363;SDS011;40636;52.424;-1.948;2022-12-24T10:22:30;15.05;;;3.15;;
43363;SDS011;40636;52.424;-1.948;2022-12-24T10:25:21;8.90;;;2.85;;
43363;SDS011;40636;52.424;-1.948;2022-12-24T10:27:53;9.18;;;2.50;;
43363;SDS011;40636;52.424;-1.948;2022-12-24T10:30:21;9.35;;;3.15;;
43363;SDS011;40636;52.424;-1.948;2022-12-24T10:32:52;10.50;;;3.13;;
43363;SDS011;40636;52.424;-1.948;2022-12-24T10:35:23;9.40;;;2.90;;
43363;SDS011;40636;52.424;-1.948;2022-12-24T10:37:53;18.02;;;4.18;;
43363;SDS011;40636;52.424;-1.948;2022-12-24T10:42:51;11.23;;;2.67;;
43363;SDS011;40636;52.424;-1.948;2022-12-24T10:45:20;9.23;;;2.45;;
43363;SDS011;40636;52.424;-1.948;2022-12-24T10:47:50;8.90;;;2.55;;
43363;SDS011;40636;52.424;-1.948;2022-12-24T10:50:28;13.57;;;2.83;;
43363;SDS011;40636;52.424;-1.948;2022-12-24T10:55:47;11.88;;;3.10;;
43363;SDS011;40636;52.424;-1.948;2022-12-24T10:58:16;10.75;;;2.40;;
43363;SDS011;40636;52.424;-1.948;2022-12-24T11:00:48;13.73;;;2.50;;
43363;SDS011;40636;52.424;-1.948;2022-12-24T11:05:43;11.13;;;2.53;;
43363;SDS011;40636;52.424;-1.948;2022-12-24T11:08:17;7.68;;;3.05;;
43363;SDS011;40636;52.424;-1.948;2022-12-24T11:11:01;7.90;;;2.10;;
43363;SDS011;40636;52.424;-1.948;2022-12-24T11:13:35;25.42;;;3.30;;
43363;SDS011;40636;52.424;-1.948;2022-12-24T11:16:09;10.32;;;3.65;;
43363;SDS011;40636;52.424;-1.948;2022-12-24T11:18:49;12.63;;;2.78;;
43363;SDS011;40636;52.424;-1.948;2022-12-24T11:21:19;9.13;;;2.88;;
43363;SDS011;40636;52.424;-1.948;2022-12-24T11:23:56;11.23;;;3.20;;
43363;SDS011;40636;52.424;-1.948;2022-12-24T11:26:26;14.15;;;2.90;;
43363;SDS011;40636;52.424;-1.948;2022-12-24T11:29:08;10.07;;;2.97;;
43363;SDS011;40636;52.424;-1.948;2022-12-24T11:31:40;10.80;;;3.15;;
43363;SDS011;40636;52.424;-1.948;2022-12-24T11:34:27;11.43;;;3.08;;
43363;SDS011;40636;52.424;-1.948;2022-12-24T11:37:09;11.27;;;3.00;;
43363;SDS011;40636;52.424;-1.948;2022-12-24T11:39:46;8.32;;;3.55;;
43363;SDS011;40636;52.424;-1.948;2022-12-24T11:42:25;11.87;;;4.33;;
43363;SDS011;40636;52.424;-1.948;2022-12-24T11:45:03;9.93;;;2.50;;
43363;SDS011;40636;52.424;-1.948;2022-12-24T11:47:40;8.63;;;3.15;;
43363;SDS011;40636;52.424;-1.948;2022-12-24T11:50:20;16.13;;;3.03;;
43363;SDS011;40636;52.424;-1.948;2022-12-24T12:01:09;13.15;;;3.60;;
43363;SDS011;40636;52.424;-1.948;2022-12-24T12:08:56;6.60;;;2.53;;
43363;SDS011;40636;52.424;-1.948;2022-12-24T12:11:29;14.45;;;2.95;;
43363;SDS011;40636;52.424;-1.948;2022-12-24T12:13:59;13.23;;;2.90;;
43363;SDS011;40636;52.424;-1.948;2022-12-24T12:16:37;12.93;;;2.67;;
43363;SDS011;40636;52.424;-1.948;2022-12-24T12:19:31;10.18;;;2.40;;
43363;SDS011;40636;52.424;-1.948;2022-12-24T12:22:21;15.07;;;2.60;;
43363;SDS011;40636;52.424;-1.948;2022-12-24T12:24:55;14.98;;;2.97;;
43363;SDS011;40636;52.424;-1.948;2022-12-24T12:29:57;6.43;;;2.55;;
43363;SDS011;40636;52.424;-1.948;2022-12-24T12:32:31;15.93;;;3.75;;
43363;SDS011;40636;52.424;-1.948;2022-12-24T12:35:14;18.70;;;3.35;;
43363;SDS011;40636;52.424;-1.948;2022-12-24T12:37:52;9.32;;;2.50;;
43363;SDS011;40636;52.424;-1.948;2022-12-24T12:40:23;12.73;;;3.55;;
43363;SDS011;40636;52.424;-1.948;2022-12-24T12:43:04;17.73;;;3.47;;
43363;SDS011;40636;52.424;-1.948;2022-12-24T12:51:31;9.95;;;2.55;;
43363;SDS011;40636;52.424;-1.948;2022-12-24T12:54:06;10.15;;;2.55;;
43363;SDS011;40636;52.424;-1.948;2022-12-24T12:56:51;15.10;;;3.45;;
43363;SDS011;40636;52.424;-1.948;2022-12-24T12:59:32;9.30;;;2.40;;
43363;SDS011;40636;52.424;-1.948;2022-12-24T13:05:11;9.13;;;2.45;;
43363;SDS011;40636;52.424;-1.948;2022-12-24T13:13:39;13.88;;;2.60;;
43363;SDS011;40636;52.424;-1.948;2022-12-24T13:19:13;14.77;;;2.63;;
43363;SDS011;40636;52.424;-1.948;2022-12-24T13:22:13;9.77;;;2.60;;
43363;SDS011;40636;52.424;-1.948;2022-12-24T13:24:49;9.30;;;2.80;;
43363;SDS011;40636;52.424;-1.948;2022-12-24T13:27:24;18.42;;;3.05;;
43363;SDS011;40636;52.424;-1.948;2022-12-24T13:29:54;7.85;;;2.40;;
43363;SDS011;40636;52.424;-1.948;2022-12-24T13:32:51;11.13;;;2.67;;
43363;SDS011;40636;52.424;-1.948;2022-12-24T13:37:47;14.38;;;2.55;;
43363;SDS011;40636;52.424;-1.948;2022-12-24T13:40:26;18.20;;;3.65;;
43363;SDS011;40636;52.424;-1.948;2022-12-24T13:47:55;12.43;;;2.80;;
43363;SDS011;40636;52.424;-1.948;2022-12-24T13:50:28;15.63;;;4.85;;
43363;SDS011;40636;52.424;-1.948;2022-12-24T13:53:00;10.57;;;3.08;;
43363;SDS011;40636;52.424;-1.948;2022-12-24T13:55:27;12.38;;;2.47;;
43363;SDS011;40636;52.424;-1.948;2022-12-24T13:57:56;14.88;;;2.90;;
43363;SDS011;40636;52.424;-1.948;2022-12-24T14:08:08;11.45;;;2.38;;
43363;SDS011;40636;52.424;-1.948;2022-12-24T14:11:05;11.98;;;2.50;;
43363;SDS011;40636;52.424;-1.948;2022-12-24T14:16:08;14.38;;;3.13;;
43363;SDS011;40636;52.424;-1.948;2022-12-24T14:18:38;15.50;;;3.13;;
43363;SDS011;40636;52.424;-1.948;2022-12-24T14:21:13;17.75;;;4.10;;
43363;SDS011;40636;52.424;-1.948;2022-12-24T14:23:57;12.10;;;3.80;;
43363;SDS011;40636;52.424;-1.948;2022-12-24T14:26:32;21.60;;;3.25;;
43363;SDS011;40636;52.424;-1.948;2022-12-24T14:29:05;8.15;;;2.80;;
43363;SDS011;40636;52.424;-1.948;2022-12-24T14:31:53;17.17;;;4.65;;
43363;SDS011;40636;52.424;-1.948;2022-12-24T14:34:21;11.85;;;3.10;;
43363;SDS011;40636;52.424;-1.948;2022-12-24T14:36:49;9.57;;;3.47;;
43363;SDS011;40636;52.424;-1.948;2022-12-24T14:39:33;17.08;;;4.53;;
43363;SDS011;40636;52.424;-1.948;2022-12-24T14:45:16;13.82;;;4.40;;
43363;SDS011;40636;52.424;-1.948;2022-12-24T14:56:38;9.63;;;3.55;;
43363;SDS011;40636;52.424;-1.948;2022-12-24T14:59:15;15.10;;;3.33;;
43363;SDS011;40636;52.424;-1.948;2022-12-24T15:01:43;17.83;;;4.32;;
43363;SDS011;40636;52.424;-1.948;2022-12-24T15:09:22;17.02;;;3.67;;
43363;SDS011;40636;52.424;-1.948;2022-12-24T15:11:52;18.65;;;3.38;;
43363;SDS011;40636;52.424;-1.948;2022-12-24T15:14:23;12.00;;;3.30;;
43363;SDS011;40636;52.424;-1.948;2022-12-24T15:16:55;9.05;;;2.55;;
43363;SDS011;40636;52.424;-1.948;2022-12-24T15:19:26;12.55;;;3.17;;
43363;SDS011;40636;52.424;-1.948;2022-12-24T15:21:57;20.33;;;5.20;;
43363;SDS011;40636;52.424;-1.948;2022-12-24T15:24:26;6.57;;;2.70;;
43363;SDS011;40636;52.424;-1.948;2022-12-24T15:27:01;15.07;;;3.60;;
43363;SDS011;40636;52.424;-1.948;2022-12-24T15:29:32;16.08;;;3.35;;
43363;SDS011;40636;52.424;-1.948;2022-12-24T15:32:04;16.80;;;3.97;;
43363;SDS011;40636;52.424;-1.948;2022-12-24T15:34:35;12.98;;;2.95;;
43363;SDS011;40636;52.424;-1.948;2022-12-24T15:39:37;13.30;;;2.85;;
43363;SDS011;40636;52.424;-1.948;2022-12-24T15:42:06;11.85;;;2.83;;
43363;SDS011;40636;52.424;-1.948;2022-12-24T15:44:42;15.40;;;2.28;;
43363;SDS011;40636;52.424;-1.948;2022-12-24T15:47:16;16.83;;;3.97;;
43363;SDS011;40636;52.424;-1.948;2022-12-24T15:49:46;13.15;;;4.03;;
43363;SDS011;40636;52.424;-1.948;2022-12-24T15:52:16;10.20;;;3.00;;
43363;SDS011;40636;52.424;-1.948;2022-12-24T15:54:44;21.17;;;2.88;;
43363;SDS011;40636;52.424;-1.948;2022-12-24T15:57:30;11.80;;;2.88;;
43363;SDS011;40636;52.424;-1.948;2022-12-24T15:59:59;15.52;;;3.38;;
43363;SDS011;40636;52.424;-1.948;2022-12-24T16:02:31;11.13;;;3.13;;
43363;SDS011;40636;52.424;-1.948;2022-12-24T16:10:47;10.02;;;3.47;;
43363;SDS011;40636;52.424;-1.948;2022-12-24T16:15:52;13.32;;;4.18;;
43363;SDS011;40636;52.424;-1.948;2022-12-24T16:18:24;14.15;;;3.42;;
43363;SDS011;40636;52.424;-1.948;2022-12-24T16:20:53;16.88;;;4.07;;
43363;SDS011;40636;52.424;-1.948;2022-12-24T16:23:22;7.82;;;3.28;;
43363;SDS011;40636;52.424;-1.948;2022-12-24T16:25:51;19.33;;;3.78;;
43363;SDS011;40636;52.424;-1.948;2022-12-24T16:28:18;9.95;;;3.33;;
43363;SDS011;40636;52.424;-1.948;2022-12-24T16:30:48;10.57;;;3.40;;
43363;SDS011;40636;52.424;-1.948;2022-12-24T16:33:16;12.02;;;3.20;;
43363;SDS011;40636;52.424;-1.948;2022-12-24T16:35:45;14.10;;;4.95;;
43363;SDS011;40636;52.424;-1.948;2022-12-24T16:38:12;16.45;;;3.17;;
43363;SDS011;40636;52.424;-1.948;2022-12-24T16:40:40;13.02;;;3.08;;
43363;SDS011;40636;52.424;-1.948;2022-12-24T16:43:07;16.95;;;3.97;;
43363;SDS011;40636;52.424;-1.948;2022-12-24T16:48:28;14.73;;;4.75;;
43363;SDS011;40636;52.424;-1.948;2022-12-24T16:50:55;15.43;;;3.53;;
43363;SDS011;40636;52.424;-1.948;2022-12-24T16:53:22;10.30;;;3.38;;
43363;SDS011;40636;52.424;-1.948;2022-12-24T16:55:49;20.30;;;3.88;;
43363;SDS011;40636;52.424;-1.948;2022-12-24T16:58:17;18.50;;;3.33;;
43363;SDS011;40636;52.424;-1.948;2022-12-24T17:00:44;13.73;;;3.53;;